Search for airport 
image banner adimage banner ad
image banner ad

VIDD - Safdarjung

Located in Delhi, India

ICAO - VIDD, IATA -

Data provided by Airmate  

General information

Coordinates: N28°34'60" E77°12'29"
Elevation is 696 feet MSL.
 
Rated:
View ratings: [VIEW]


View others Airports in Delhi

Operational data

Open for public use
Current time UTC:
Current local time:
Weather
METAR: VIDD 210230Z VRB02KT 1500 BR NSC 19/17 Q1016 NOSIG
View NOTAMs / SUP AIP / TFR affecting this airport [VIEW]
Communications frequencies: [VIEW]

Runways:

RWY identifierQFULength (ft)Width (ft)SurfaceLDA (ft)
12126°387298ASP
30306°387298

Airport contact information

Address: Delhi India

Satellite view of VIDD